Terminal Aerodrome Forecast
Issued by NWS Jackson, KY

Home | Current Version | Previous Version | Text Only | Print | Product List | Glossary On
Versions: 1 2 3 4 5 6 7 8 9 10 11 12 13 14 15 16 17 18
000
FTUS43 KJKL 281700
TAFJKL
TAF
KJKL 281739Z 2818/2918 30008G15KT P6SM BKN025 OVC045
      TEMPO 2818/2822 SCT025
     FM290800 VRB03KT P6SM SCT015 OVC025
     FM291400 VRB05KT P6SM SCT025=

USA.gov is the U.S. government's official web portal to all federal, state and local government web resources and services.